createdAt,value
2022-12-18T00:01:34.396Z,-3.50
2022-12-18T00:04:04.607Z,-3.50
2022-12-18T00:06:33.751Z,-3.50
2022-12-18T00:09:02.671Z,-3.60
2022-12-18T00:11:31.654Z,-3.60
2022-12-18T00:14:00.644Z,-3.70
2022-12-18T00:16:31.071Z,-3.60
2022-12-18T00:18:58.795Z,-3.70
2022-12-18T00:21:28.121Z,-3.70
2022-12-18T00:23:55.956Z,-3.70
2022-12-18T00:26:25.315Z,-3.70
2022-12-18T00:29:04.233Z,-3.70
2022-12-18T00:31:33.761Z,-3.70
2022-12-18T00:34:02.606Z,-3.70
2022-12-18T00:36:32.328Z,-3.80
2022-12-18T00:39:02.006Z,-3.80
2022-12-18T00:41:49.307Z,-3.80
2022-12-18T00:44:18.390Z,-3.80
2022-12-18T00:46:46.842Z,-3.80
2022-12-18T00:49:15.347Z,-3.80
2022-12-18T00:51:42.838Z,-3.80
2022-12-18T00:54:10.519Z,-3.80
2022-12-18T00:56:45.732Z,-3.70
2022-12-18T00:59:17.752Z,-3.80
2022-12-18T01:01:46.071Z,-3.80
2022-12-18T01:04:13.934Z,-3.80
2022-12-18T01:06:41.561Z,-3.70
2022-12-18T01:09:09.010Z,-3.80
2022-12-18T01:11:37.756Z,-3.80
2022-12-18T01:14:05.447Z,-3.70
2022-12-18T01:16:32.997Z,-3.70
2022-12-18T01:19:00.421Z,-3.70
2022-12-18T01:21:29.006Z,-3.80
2022-12-18T01:23:57.489Z,-3.80
2022-12-18T01:26:26.201Z,-3.80
2022-12-18T01:28:55.609Z,-3.80
2022-12-18T01:31:27.121Z,-3.90
2022-12-18T01:33:56.112Z,-3.90
2022-12-18T01:36:35.400Z,-3.90
2022-12-18T01:39:08.128Z,-3.90
2022-12-18T01:41:55.172Z,-4.00
2022-12-18T01:44:56.888Z,-4.10
2022-12-18T01:47:25.992Z,-4.10
2022-12-18T01:49:54.228Z,-4.20
2022-12-18T01:52:22.905Z,-4.30
2022-12-18T01:54:52.317Z,-4.40
2022-12-18T01:57:21.257Z,-4.40
2022-12-18T01:59:53.653Z,-4.40
2022-12-18T02:02:22.316Z,-4.50
2022-12-18T02:04:49.881Z,-4.60
2022-12-18T02:07:37.274Z,-4.70
2022-12-18T02:10:34.218Z,-4.70
2022-12-18T02:13:04.813Z,-4.70
2022-12-18T02:15:43.600Z,-4.80
2022-12-18T02:18:20.888Z,-4.80
2022-12-18T02:21:10.819Z,-4.90
2022-12-18T02:24:07.857Z,-5.00
2022-12-18T02:26:48.090Z,-5.00
2022-12-18T02:29:19.335Z,-5.00
2022-12-18T02:31:52.645Z,-5.00
2022-12-18T02:34:23.889Z,-5.00
2022-12-18T02:36:52.246Z,-5.00
2022-12-18T02:39:21.197Z,-5.00
2022-12-18T02:41:59.541Z,-5.10
2022-12-18T02:44:27.360Z,-5.10
2022-12-18T02:46:55.737Z,-5.10
2022-12-18T02:49:49.492Z,-5.10
2022-12-18T02:52:32.410Z,-5.10
2022-12-18T02:55:41.230Z,-5.10
2022-12-18T02:58:27.104Z,-5.20
2022-12-18T03:01:07.489Z,-5.20
2022-12-18T03:03:40.593Z,-5.20
2022-12-18T03:06:31.144Z,-5.20
2022-12-18T03:09:13.079Z,-5.30
2022-12-18T03:12:06.543Z,-5.40
2022-12-18T03:14:35.285Z,-5.40
2022-12-18T03:17:05.321Z,-5.40
2022-12-18T03:19:34.111Z,-5.50
2022-12-18T03:22:03.984Z,-5.50
2022-12-18T03:24:41.187Z,-5.50
2022-12-18T03:27:15.069Z,-5.60
2022-12-18T03:29:50.689Z,-5.60
2022-12-18T03:32:27.407Z,-5.60
2022-12-18T03:34:58.679Z,-5.60
2022-12-18T03:37:30.193Z,-5.70
2022-12-18T03:39:58.777Z,-5.70
2022-12-18T03:42:53.263Z,-5.80
2022-12-18T03:45:28.096Z,-5.80
2022-12-18T03:48:00.336Z,-5.80
2022-12-18T03:50:40.907Z,-5.80
2022-12-18T03:53:15.376Z,-5.70
2022-12-18T03:55:44.762Z,-5.70
2022-12-18T03:58:16.762Z,-5.60
2022-12-18T04:00:56.884Z,-5.60
2022-12-18T04:03:26.605Z,-5.50
2022-12-18T04:05:56.523Z,-5.60
2022-12-18T04:08:24.920Z,-5.60
2022-12-18T04:11:02.721Z,-5.50
2022-12-18T04:13:33.894Z,-5.50
2022-12-18T04:16:03.725Z,-5.40
2022-12-18T04:18:31.438Z,-5.40
2022-12-18T04:21:00.806Z,-5.50
2022-12-18T04:23:29.309Z,-5.40
2022-12-18T04:25:59.290Z,-5.50
2022-12-18T04:28:45.431Z,-5.50
2022-12-18T04:31:13.631Z,-5.40
2022-12-18T04:33:41.454Z,-5.40
2022-12-18T04:36:10.521Z,-5.40
2022-12-18T04:38:38.515Z,-5.40
2022-12-18T04:41:09.907Z,-5.30
2022-12-18T04:43:38.214Z,-5.30
2022-12-18T04:46:07.548Z,-5.30
2022-12-18T04:48:35.624Z,-5.40
2022-12-18T04:51:04.200Z,-5.40
2022-12-18T04:53:32.106Z,-5.40
2022-12-18T04:56:18.246Z,-5.50
2022-12-18T04:58:45.887Z,-5.50
2022-12-18T05:01:15.122Z,-5.50
2022-12-18T05:03:43.225Z,-5.50
2022-12-18T05:06:11.301Z,-5.60
2022-12-18T05:08:38.722Z,-5.50
2022-12-18T05:11:12.932Z,-5.50
2022-12-18T05:13:41.041Z,-5.50
2022-12-18T05:16:09.279Z,-5.50
2022-12-18T05:18:36.873Z,-5.50
2022-12-18T05:21:04.682Z,-5.50
2022-12-18T05:23:32.577Z,-5.50
2022-12-18T05:26:02.371Z,-5.40
2022-12-18T05:28:31.939Z,-5.40
2022-12-18T05:31:01.612Z,-5.40
2022-12-18T05:33:32.497Z,-5.40
2022-12-18T05:36:05.486Z,-5.40
2022-12-18T05:38:34.100Z,-5.40
2022-12-18T05:41:01.721Z,-5.40
2022-12-18T05:43:29.807Z,-5.30
2022-12-18T05:45:58.496Z,-5.30
2022-12-18T05:48:25.965Z,-5.30
2022-12-18T05:50:53.462Z,-5.30
2022-12-18T05:53:21.608Z,-5.30
2022-12-18T05:55:49.606Z,-5.20
2022-12-18T05:58:17.270Z,-5.30
2022-12-18T06:00:46.225Z,-5.30
2022-12-18T06:03:14.523Z,-5.20
2022-12-18T06:05:44.307Z,-5.20
2022-12-18T06:08:13.330Z,-5.20
2022-12-18T06:10:41.506Z,-5.20
2022-12-18T06:13:09.361Z,-5.20
2022-12-18T06:15:40.016Z,-5.20
2022-12-18T06:18:07.533Z,-5.20
2022-12-18T06:20:37.490Z,-5.30
2022-12-18T06:23:04.962Z,-5.30
2022-12-18T06:25:32.511Z,-5.30
2022-12-18T06:28:00.231Z,-5.30
2022-12-18T06:30:27.853Z,-5.30
2022-12-18T06:32:56.942Z,-5.30
2022-12-18T06:35:24.645Z,-5.30
2022-12-18T06:37:52.127Z,-5.20
2022-12-18T06:40:20.108Z,-5.30
2022-12-18T06:42:47.565Z,-5.30
2022-12-18T06:45:15.203Z,-5.30
2022-12-18T06:47:42.707Z,-5.30
2022-12-18T06:50:10.391Z,-5.30
2022-12-18T06:52:37.969Z,-5.30
2022-12-18T06:55:06.085Z,-5.30
2022-12-18T06:57:33.531Z,-5.30
2022-12-18T07:00:01.192Z,-5.30
2022-12-18T07:02:28.666Z,-5.40
2022-12-18T07:04:56.236Z,-5.40
2022-12-18T07:07:23.653Z,-5.40
2022-12-18T07:09:51.708Z,-5.40
2022-12-18T07:12:19.483Z,-5.50
2022-12-18T07:14:46.927Z,-5.50
2022-12-18T07:17:14.455Z,-5.50
2022-12-18T07:19:41.923Z,-5.50
2022-12-18T07:22:09.403Z,-5.50
2022-12-18T07:24:36.863Z,-5.50
2022-12-18T07:27:04.375Z,-5.40
2022-12-18T07:29:32.139Z,-5.40
2022-12-18T07:31:59.992Z,-5.40
2022-12-18T07:34:27.456Z,-5.40
2022-12-18T07:36:54.901Z,-5.40
2022-12-18T07:39:22.393Z,-5.40
2022-12-18T07:42:09.875Z,-5.40
2022-12-18T07:44:37.719Z,-5.40
2022-12-18T07:47:09.100Z,-5.40
2022-12-18T07:49:39.337Z,-5.30
2022-12-18T07:52:06.771Z,-5.30
2022-12-18T07:54:34.172Z,-5.30
2022-12-18T07:57:01.771Z,-5.30
2022-12-18T07:59:29.157Z,-5.20
2022-12-18T08:01:56.937Z,-5.30
2022-12-18T08:04:24.462Z,-5.20
2022-12-18T08:06:52.142Z,-5.20
2022-12-18T08:09:19.656Z,-5.10
2022-12-18T08:11:47.126Z,-5.10
2022-12-18T08:14:15.670Z,-5.10
2022-12-18T08:16:43.103Z,-5.00
2022-12-18T08:19:11.120Z,-5.00
2022-12-18T08:21:38.542Z,-4.90
2022-12-18T08:24:06.374Z,-4.90
2022-12-18T08:26:33.879Z,-4.80
2022-12-18T08:29:01.791Z,-4.70
2022-12-18T08:31:30.786Z,-4.70
2022-12-18T08:33:58.361Z,-4.60
2022-12-18T08:36:26.209Z,-4.60
2022-12-18T08:38:54.722Z,-4.50
2022-12-18T08:41:22.320Z,-4.50
2022-12-18T08:44:08.816Z,-4.50
2022-12-18T08:46:39.037Z,-4.40
2022-12-18T08:49:07.986Z,-4.40
2022-12-18T08:51:36.173Z,-4.30
2022-12-18T08:54:04.715Z,-4.30
2022-12-18T08:56:35.067Z,-4.30
2022-12-18T08:59:02.653Z,-4.20
2022-12-18T09:01:30.256Z,-4.20
2022-12-18T09:03:58.046Z,-4.20
2022-12-18T09:06:25.605Z,-4.20
2022-12-18T09:08:53.083Z,-4.00
2022-12-18T09:11:26.403Z,-4.10
2022-12-18T09:13:55.493Z,-4.10
2022-12-18T09:16:30.117Z,-3.90
2022-12-18T09:19:02.874Z,-3.90
2022-12-18T09:21:34.794Z,-3.90
2022-12-18T09:24:08.017Z,-3.80
2022-12-18T09:26:36.821Z,-3.80
2022-12-18T09:29:05.037Z,-3.80
2022-12-18T09:31:32.602Z,-3.70
2022-12-18T09:34:00.165Z,-3.70
2022-12-18T09:36:27.963Z,-3.70
2022-12-18T09:38:55.753Z,-3.60
2022-12-18T09:41:23.273Z,-3.60
2022-12-18T09:44:02.882Z,-3.60
2022-12-18T09:46:36.221Z,-3.50
2022-12-18T09:49:07.885Z,-3.50
2022-12-18T09:51:55.404Z,-3.40
2022-12-18T09:54:37.372Z,-3.30
2022-12-18T09:57:05.286Z,-3.30
2022-12-18T09:59:42.786Z,-3.20
2022-12-18T10:02:22.467Z,-3.20
2022-12-18T10:05:13.257Z,-3.20
2022-12-18T10:07:59.509Z,-3.10
2022-12-18T10:10:33.734Z,-3.10
2022-12-18T10:13:07.605Z,-3.10
2022-12-18T10:15:59.159Z,-3.00
2022-12-18T10:18:39.117Z,-3.00
2022-12-18T10:21:23.196Z,-2.90
2022-12-18T10:24:26.063Z,-2.90
2022-12-18T10:26:55.168Z,-2.90
2022-12-18T10:29:22.819Z,-2.90
2022-12-18T10:31:50.294Z,-2.90
2022-12-18T10:34:17.703Z,-2.80
2022-12-18T10:36:45.108Z,-2.80
2022-12-18T10:39:23.275Z,-2.80
2022-12-18T10:41:50.737Z,-2.80
2022-12-18T10:44:23.368Z,-2.80
2022-12-18T10:46:59.353Z,-2.70
2022-12-18T10:49:28.993Z,-2.70
2022-12-18T10:52:16.421Z,-2.70
2022-12-18T10:55:14.523Z,-2.70
2022-12-18T10:57:42.622Z,-2.60
2022-12-18T11:00:29.645Z,-2.60
2022-12-18T11:02:57.949Z,-2.60
2022-12-18T11:05:32.165Z,-2.60
2022-12-18T11:08:01.001Z,-2.60
2022-12-18T11:10:38.781Z,-2.60
2022-12-18T11:13:20.983Z,-2.60
2022-12-18T11:15:49.533Z,-2.60
2022-12-18T11:18:31.982Z,-2.50
2022-12-18T11:21:10.547Z,-2.50
2022-12-18T11:23:38.671Z,-2.50
2022-12-18T11:26:07.055Z,-2.40
2022-12-18T11:29:10.566Z,-2.40
2022-12-18T11:31:38.719Z,-2.30
2022-12-18T11:34:30.378Z,-2.20
2022-12-18T11:37:00.596Z,-2.20
2022-12-18T11:39:42.268Z,-2.20
2022-12-18T11:42:46.873Z,-2.20
2022-12-18T11:45:14.316Z,-2.20
2022-12-18T11:48:23.240Z,-2.10
2022-12-18T11:50:55.365Z,-2.10
2022-12-18T11:53:23.151Z,-2.00
2022-12-18T11:56:22.743Z,-2.00
2022-12-18T11:59:12.108Z,-2.00
2022-12-18T12:01:47.642Z,-1.90
2022-12-18T12:04:52.454Z,-1.80
2022-12-18T12:07:41.188Z,-1.80
2022-12-18T12:10:11.516Z,-1.80
2022-12-18T12:13:10.135Z,-1.70
2022-12-18T12:15:50.876Z,-1.70
2022-12-18T12:18:42.637Z,-1.70
2022-12-18T12:21:28.660Z,-1.60
2022-12-18T12:24:03.411Z,-1.50
2022-12-18T12:26:46.951Z,-1.50
2022-12-18T12:29:30.220Z,-1.50
2022-12-18T12:32:19.606Z,-1.40
2022-12-18T12:35:01.778Z,-1.40
2022-12-18T12:37:35.240Z,-1.40
2022-12-18T12:40:15.230Z,-1.30
2022-12-18T12:43:17.340Z,-1.30
2022-12-18T12:45:54.124Z,-1.30
2022-12-18T12:48:43.578Z,-1.30
2022-12-18T12:51:18.845Z,-1.30
2022-12-18T12:53:46.919Z,-1.20
2022-12-18T12:56:16.821Z,-1.20
2022-12-18T12:58:54.191Z,-1.20
2022-12-18T13:01:39.091Z,-1.20
2022-12-18T13:04:21.564Z,-1.20
2022-12-18T13:07:02.801Z,-1.20
2022-12-18T13:09:33.438Z,-1.20
2022-12-18T13:12:24.339Z,-1.20
2022-12-18T13:14:51.884Z,-1.10
2022-12-18T13:17:24.726Z,-1.00
2022-12-18T13:20:07.102Z,-1.00
2022-12-18T13:22:34.843Z,-0.90
2022-12-18T13:25:02.747Z,-0.90
2022-12-18T13:27:46.569Z,-0.90
2022-12-18T13:30:33.461Z,-0.90
2022-12-18T13:33:16.286Z,-0.90
2022-12-18T13:35:46.916Z,-0.80
2022-12-18T13:38:26.874Z,-0.80
2022-12-18T13:40:55.967Z,-0.80
2022-12-18T13:43:24.748Z,-0.90
2022-12-18T13:46:07.607Z,-0.90
2022-12-18T13:48:38.862Z,-0.90
2022-12-18T13:51:10.519Z,-1.00
2022-12-18T13:53:40.125Z,-1.00
2022-12-18T13:56:08.499Z,-1.00
2022-12-18T13:58:36.067Z,-1.00
2022-12-18T14:01:05.686Z,-1.00
2022-12-18T14:03:33.401Z,-1.00
2022-12-18T14:06:03.582Z,-1.00
2022-12-18T14:08:37.248Z,-1.00
2022-12-18T14:11:06.054Z,-1.00
2022-12-18T14:13:39.006Z,-1.00
2022-12-18T14:16:07.480Z,-0.90
2022-12-18T14:19:01.944Z,-1.00
2022-12-18T14:21:39.404Z,-0.90
2022-12-18T14:24:22.384Z,-0.90
2022-12-18T14:26:51.094Z,-0.90
2022-12-18T14:29:28.361Z,-0.90
2022-12-18T14:32:08.381Z,-0.90
2022-12-18T14:34:37.981Z,-0.90
2022-12-18T14:37:05.709Z,-0.90
2022-12-18T14:39:33.222Z,-0.90
2022-12-18T14:42:00.851Z,-0.90
2022-12-18T14:44:34.540Z,-0.90
2022-12-18T14:47:17.455Z,-0.90
2022-12-18T14:49:45.496Z,-0.90
2022-12-18T14:52:26.428Z,-0.90
2022-12-18T14:54:54.001Z,-0.90
2022-12-18T14:57:36.179Z,-0.90
2022-12-18T15:00:08.792Z,-0.90
2022-12-18T15:02:37.019Z,-0.90
2022-12-18T15:05:15.290Z,-0.80
2022-12-18T15:07:49.171Z,-0.80
2022-12-18T15:10:27.185Z,-0.80
2022-12-18T15:12:57.688Z,-0.80
2022-12-18T15:15:34.648Z,-0.80
2022-12-18T15:18:09.730Z,-0.80
2022-12-18T15:20:49.541Z,-0.70
2022-12-18T15:23:22.787Z,-0.80
2022-12-18T15:25:57.570Z,-0.80
2022-12-18T15:28:34.762Z,-0.80
2022-12-18T15:31:03.787Z,-0.80
2022-12-18T15:33:37.543Z,-0.80
2022-12-18T15:36:10.623Z,-0.80
2022-12-18T15:38:38.066Z,-0.80
2022-12-18T15:41:08.942Z,-0.80
2022-12-18T15:43:41.104Z,-0.80
2022-12-18T15:46:27.811Z,-0.80
2022-12-18T15:49:01.842Z,-0.70
2022-12-18T15:51:33.433Z,-0.80
2022-12-18T15:54:04.829Z,-0.70
2022-12-18T15:56:50.923Z,-0.70
2022-12-18T15:59:20.675Z,-0.70
2022-12-18T16:01:50.256Z,-0.70
2022-12-18T16:04:21.495Z,-0.70
2022-12-18T16:09:38.064Z,-0.70
2022-12-18T16:12:07.514Z,-0.70
2022-12-18T16:14:35.095Z,-0.70
2022-12-18T16:17:06.446Z,-0.70
2022-12-18T16:19:34.030Z,-0.70
2022-12-18T16:22:04.945Z,-0.60
2022-12-18T16:24:34.050Z,-0.60
2022-12-18T16:27:01.833Z,-0.60
2022-12-18T16:29:29.921Z,-0.50
2022-12-18T16:31:58.899Z,-0.50
2022-12-18T16:34:29.570Z,-0.50
2022-12-18T16:37:04.924Z,-0.50
2022-12-18T16:39:35.575Z,-0.50
2022-12-18T16:42:17.543Z,-0.40
2022-12-18T16:44:46.517Z,-0.40
2022-12-18T16:47:15.343Z,-0.30
2022-12-18T16:49:45.908Z,-0.40
2022-12-18T16:52:14.137Z,-0.30
2022-12-18T16:54:41.656Z,-0.40
2022-12-18T16:57:11.261Z,-0.30
2022-12-18T16:59:38.808Z,-0.30
2022-12-18T17:02:07.398Z,-0.30
2022-12-18T17:04:35.463Z,-0.30
2022-12-18T17:07:04.622Z,-0.30
2022-12-18T17:09:32.193Z,-0.30
2022-12-18T17:12:04.011Z,-0.30
2022-12-18T17:14:33.039Z,-0.20
2022-12-18T17:17:20.814Z,-0.20
2022-12-18T17:19:48.422Z,-0.20
2022-12-18T17:22:15.909Z,-0.10
2022-12-18T17:24:43.349Z,-0.10
2022-12-18T17:27:10.840Z,-0.10
2022-12-18T17:29:42.459Z,-0.10
2022-12-18T17:32:12.822Z,0.00
2022-12-18T17:34:41.362Z,-0.10
2022-12-18T17:37:09.220Z,-0.10
2022-12-18T17:39:36.837Z,-0.10
2022-12-18T17:42:05.319Z,-0.10
2022-12-18T17:44:36.584Z,-0.10
2022-12-18T17:47:04.245Z,0.00
2022-12-18T17:49:31.832Z,-0.10
2022-12-18T17:51:59.265Z,-0.10
2022-12-18T17:54:26.726Z,0.00
2022-12-18T17:56:54.148Z,0.00
2022-12-18T17:59:22.777Z,0.00
2022-12-18T18:01:50.363Z,0.00
2022-12-18T18:04:18.046Z,0.00
2022-12-18T18:06:45.562Z,0.00
2022-12-18T18:09:16.766Z,0.00
2022-12-18T18:12:06.226Z,0.10
2022-12-18T18:14:33.876Z,0.10
2022-12-18T18:17:04.945Z,0.00
2022-12-18T18:19:33.551Z,0.10
2022-12-18T18:22:02.093Z,0.10
2022-12-18T18:24:33.361Z,0.10
2022-12-18T18:27:00.899Z,0.10
2022-12-18T18:29:31.940Z,0.10
2022-12-18T18:31:59.837Z,0.10
2022-12-18T18:34:29.422Z,0.20
2022-12-18T18:36:57.057Z,0.20
2022-12-18T18:39:24.701Z,0.20
2022-12-18T18:41:52.439Z,0.20
2022-12-18T18:44:22.829Z,0.20
2022-12-18T18:46:58.471Z,0.20
2022-12-18T18:49:27.562Z,0.20
2022-12-18T18:51:57.027Z,0.20
2022-12-18T18:54:25.468Z,0.20
2022-12-18T18:59:40.840Z,0.30
2022-12-18T19:02:13.385Z,0.30
2022-12-18T19:04:46.334Z,0.30
2022-12-18T19:07:25.378Z,0.30
2022-12-18T19:10:04.190Z,0.40
2022-12-18T19:12:52.016Z,0.30
2022-12-18T19:15:19.666Z,0.40
2022-12-18T19:17:47.463Z,0.40
2022-12-18T19:20:15.781Z,0.40
2022-12-18T19:22:43.252Z,0.40
2022-12-18T19:25:12.317Z,0.40
2022-12-18T19:27:40.165Z,0.40
2022-12-18T19:30:08.900Z,0.40
2022-12-18T19:32:36.553Z,0.40
2022-12-18T19:35:05.298Z,0.50
2022-12-18T19:37:35.012Z,0.40
2022-12-18T19:40:10.598Z,0.50
2022-12-18T19:42:39.966Z,0.50
2022-12-18T19:45:07.701Z,0.50
2022-12-18T19:47:35.112Z,0.50
2022-12-18T19:50:02.840Z,0.50
2022-12-18T19:52:31.204Z,0.50
2022-12-18T19:54:58.705Z,0.50
2022-12-18T19:57:26.139Z,0.50
2022-12-18T19:59:53.949Z,0.50
2022-12-18T20:02:21.676Z,0.50
2022-12-18T20:04:50.332Z,0.60
2022-12-18T20:07:17.874Z,0.60
2022-12-18T20:09:46.057Z,0.60
2022-12-18T20:12:14.495Z,0.60
2022-12-18T20:14:42.080Z,0.60
2022-12-18T20:17:09.644Z,0.60
2022-12-18T20:19:37.172Z,0.60
2022-12-18T20:22:05.710Z,0.60
2022-12-18T20:24:33.319Z,0.60
2022-12-18T20:27:00.881Z,0.60
2022-12-18T20:29:28.495Z,0.70
2022-12-18T20:31:56.057Z,0.70
2022-12-18T20:34:24.075Z,0.70
2022-12-18T20:36:51.681Z,0.70
2022-12-18T20:39:20.493Z,0.70
2022-12-18T20:41:50.932Z,0.70
2022-12-18T20:44:22.715Z,0.70
2022-12-18T20:46:56.685Z,0.70
2022-12-18T20:49:26.205Z,0.70
2022-12-18T20:51:56.205Z,0.70
2022-12-18T20:54:26.694Z,0.80
2022-12-18T20:56:54.359Z,0.80
2022-12-18T20:59:23.261Z,0.80
2022-12-18T21:01:52.137Z,0.80
2022-12-18T21:04:20.131Z,0.80
2022-12-18T21:06:54.222Z,0.80
2022-12-18T21:09:28.202Z,0.90
2022-12-18T21:12:20.307Z,0.90
2022-12-18T21:14:47.771Z,0.90
2022-12-18T21:17:17.584Z,0.90
2022-12-18T21:19:45.021Z,0.90
2022-12-18T21:22:13.615Z,1.00
2022-12-18T21:24:41.035Z,1.00
2022-12-18T21:27:08.537Z,1.00
2022-12-18T21:29:40.027Z,1.00
2022-12-18T21:32:13.795Z,1.10
2022-12-18T21:34:49.015Z,1.20
2022-12-18T21:37:16.604Z,1.30
2022-12-18T21:39:44.060Z,1.30
2022-12-18T21:42:30.767Z,1.40
2022-12-18T21:44:58.565Z,1.50
2022-12-18T21:47:25.979Z,1.50
2022-12-18T21:49:53.901Z,1.50
2022-12-18T21:52:27.298Z,1.60
2022-12-18T21:55:07.881Z,1.60
2022-12-18T21:57:37.517Z,1.70
2022-12-18T22:00:06.355Z,1.70
2022-12-18T22:02:39.648Z,1.70
2022-12-18T22:05:07.897Z,1.80
2022-12-18T22:07:35.510Z,1.80
2022-12-18T22:10:02.996Z,1.90
2022-12-18T22:12:43.450Z,1.90
2022-12-18T22:15:21.485Z,2.00
2022-12-18T22:17:50.725Z,1.90
2022-12-18T22:20:19.862Z,2.00
2022-12-18T22:22:48.610Z,2.00
2022-12-18T22:25:16.212Z,2.10
2022-12-18T22:28:04.422Z,2.10
2022-12-18T22:30:32.184Z,2.10
2022-12-18T22:32:59.687Z,2.10
2022-12-18T22:35:27.125Z,2.10
2022-12-18T22:37:54.621Z,2.20
2022-12-18T22:40:26.974Z,2.20
2022-12-18T22:42:54.635Z,2.30
2022-12-18T22:45:24.700Z,2.30
2022-12-18T22:47:52.246Z,2.30
2022-12-18T22:50:20.901Z,2.40
2022-12-18T22:52:48.389Z,2.40
2022-12-18T22:55:15.982Z,2.50
2022-12-18T22:57:46.514Z,2.50
2022-12-18T23:00:23.892Z,2.60
2022-12-18T23:02:59.401Z,2.60
2022-12-18T23:05:29.083Z,2.70
2022-12-18T23:07:57.865Z,2.70
2022-12-18T23:10:25.429Z,2.70
2022-12-18T23:12:53.167Z,2.70
2022-12-18T23:15:23.539Z,2.80
2022-12-18T23:17:59.407Z,2.80
2022-12-18T23:20:27.603Z,2.90
2022-12-18T23:22:55.232Z,2.90
2022-12-18T23:25:22.946Z,3.00
2022-12-18T23:27:50.577Z,3.00
2022-12-18T23:30:18.071Z,3.00
2022-12-18T23:32:45.699Z,3.10
2022-12-18T23:35:14.235Z,3.10
2022-12-18T23:38:00.496Z,3.10
2022-12-18T23:40:29.449Z,3.10
2022-12-18T23:42:57.403Z,3.20
2022-12-18T23:45:24.902Z,3.20
2022-12-18T23:47:52.482Z,3.30
2022-12-18T23:50:22.121Z,3.30
2022-12-18T23:52:57.010Z,3.30
2022-12-18T23:55:29.784Z,3.30
2022-12-18T23:57:57.226Z,3.40
